sensor_id;sensor_type;location;lat;lon;timestamp;pressure;altitude;pressure_sealevel;temperature;humidity
48800;BME280;34611;47.964;7.982;2022-08-02T00:03:58;97080.84;;;18.38;70.26
48800;BME280;34611;47.964;7.982;2022-08-02T00:10:58;97074.13;;;18.35;70.56
48800;BME280;34611;47.964;7.982;2022-08-02T00:17:58;97080.03;;;18.37;70.12
48800;BME280;34611;47.964;7.982;2022-08-02T00:24:58;97075.75;;;18.36;70.29
48800;BME280;34611;47.964;7.982;2022-08-02T00:31:59;97076.56;;;18.37;70.38
48800;BME280;34611;47.964;7.982;2022-08-02T00:38:59;97064.41;;;18.36;70.13
48800;BME280;34611;47.964;7.982;2022-08-02T00:45:59;97060.47;;;18.32;70.80
48800;BME280;34611;47.964;7.982;2022-08-02T00:52:59;97054.91;;;18.27;70.65
48800;BME280;34611;47.964;7.982;2022-08-02T01:00:00;97047.53;;;18.22;70.47
48800;BME280;34611;47.964;7.982;2022-08-02T01:07:01;97046.34;;;18.25;70.65
48800;BME280;34611;47.964;7.982;2022-08-02T01:14:07;97033.19;;;18.25;70.16
48800;BME280;34611;47.964;7.982;2022-08-02T01:35:49;97043.44;;;18.19;70.24
48800;BME280;34611;47.964;7.982;2022-08-02T01:42:53;97029.47;;;18.19;70.16
48800;BME280;34611;47.964;7.982;2022-08-02T01:49:55;97027.00;;;18.17;70.07
48800;BME280;34611;47.964;7.982;2022-08-02T01:56:56;97025.19;;;18.18;69.88
48800;BME280;34611;47.964;7.982;2022-08-02T02:03:58;97017.66;;;18.15;70.03
48800;BME280;34611;47.964;7.982;2022-08-02T02:11:00;97019.66;;;18.05;70.20
48800;BME280;34611;47.964;7.982;2022-08-02T02:18:01;97019.78;;;18.11;69.98
48800;BME280;34611;47.964;7.982;2022-08-02T02:25:03;97022.59;;;18.10;69.93
48800;BME280;34611;47.964;7.982;2022-08-02T02:32:03;97006.00;;;18.09;69.83
48800;BME280;34611;47.964;7.982;2022-08-02T02:39:05;96995.63;;;18.08;70.08
48800;BME280;34611;47.964;7.982;2022-08-02T02:46:06;97004.69;;;18.05;70.61
48800;BME280;34611;47.964;7.982;2022-08-02T02:53:07;96992.06;;;18.00;70.73
48800;BME280;34611;47.964;7.982;2022-08-02T03:00:09;97001.06;;;18.06;69.97
48800;BME280;34611;47.964;7.982;2022-08-02T03:07:10;96991.25;;;18.00;70.20
48800;BME280;34611;47.964;7.982;2022-08-02T03:14:11;97005.09;;;17.94;69.90
48800;BME280;34611;47.964;7.982;2022-08-02T03:21:12;97003.78;;;17.90;70.30
48800;BME280;34611;47.964;7.982;2022-08-02T03:28:12;97003.47;;;17.85;70.32
48800;BME280;34611;47.964;7.982;2022-08-02T03:35:14;97008.69;;;17.93;70.23
48800;BME280;34611;47.964;7.982;2022-08-02T03:42:15;96998.69;;;17.88;70.56
48800;BME280;34611;47.964;7.982;2022-08-02T03:49:16;96996.56;;;17.92;70.42
48800;BME280;34611;47.964;7.982;2022-08-02T03:56:17;96992.91;;;17.93;70.16
48800;BME280;34611;47.964;7.982;2022-08-02T04:03:17;96997.69;;;17.89;69.99
48800;BME280;34611;47.964;7.982;2022-08-02T04:10:18;96999.19;;;17.92;69.85
48800;BME280;34611;47.964;7.982;2022-08-02T04:17:18;96992.78;;;17.86;70.26
48800;BME280;34611;47.964;7.982;2022-08-02T04:24:24;96991.78;;;17.87;70.01
48800;BME280;34611;47.964;7.982;2022-08-02T04:31:25;96993.44;;;17.88;69.80
48800;BME280;34611;47.964;7.982;2022-08-02T04:38:25;96998.22;;;17.85;69.91
48800;BME280;34611;47.964;7.982;2022-08-02T04:45:26;96999.88;;;17.86;69.88
48800;BME280;34611;47.964;7.982;2022-08-02T04:52:28;97011.03;;;17.79;70.30
48800;BME280;34611;47.964;7.982;2022-08-02T04:59:28;97016.63;;;17.85;70.40
48800;BME280;34611;47.964;7.982;2022-08-02T05:06:29;97027.13;;;17.85;70.52
48800;BME280;34611;47.964;7.982;2022-08-02T05:13:29;97032.06;;;17.88;70.50
48800;BME280;34611;47.964;7.982;2022-08-02T05:20:29;97030.53;;;17.93;70.32
48800;BME280;34611;47.964;7.982;2022-08-02T05:27:29;97022.84;;;17.92;70.58
48800;BME280;34611;47.964;7.982;2022-08-02T05:34:32;97022.34;;;17.96;70.12
48800;BME280;34611;47.964;7.982;2022-08-02T05:41:32;97020.34;;;17.98;70.32
48800;BME280;34611;47.964;7.982;2022-08-02T05:48:32;97015.41;;;17.95;70.18
48800;BME280;34611;47.964;7.982;2022-08-02T05:55:34;97012.00;;;17.87;70.39
48800;BME280;34611;47.964;7.982;2022-08-02T06:09:42;97012.16;;;17.85;72.65
48800;BME280;34611;47.964;7.982;2022-08-02T06:16:43;97018.56;;;17.91;73.43
48800;BME280;34611;47.964;7.982;2022-08-02T06:23:44;97017.88;;;17.97;73.80
48800;BME280;34611;47.964;7.982;2022-08-02T06:30:45;97021.66;;;18.03;73.01
48800;BME280;34611;47.964;7.982;2022-08-02T06:44:48;97023.69;;;18.24;71.56
48800;BME280;34611;47.964;7.982;2022-08-02T06:51:48;97028.78;;;18.25;70.77
48800;BME280;34611;47.964;7.982;2022-08-02T06:58:49;97024.16;;;18.27;70.42
48800;BME280;34611;47.964;7.982;2022-08-02T07:05:49;97016.06;;;18.29;70.19
48800;BME280;34611;47.964;7.982;2022-08-02T07:12:49;97021.00;;;18.32;70.05
48800;BME280;34611;47.964;7.982;2022-08-02T07:19:50;97022.63;;;18.33;70.00
48800;BME280;34611;47.964;7.982;2022-08-02T07:26:50;97025.91;;;18.35;70.03
48800;BME280;34611;47.964;7.982;2022-08-02T07:33:50;97021.50;;;18.35;70.16
48800;BME280;34611;47.964;7.982;2022-08-02T07:40:50;97030.84;;;18.38;69.99
48800;BME280;34611;47.964;7.982;2022-08-02T07:47:51;97030.66;;;18.39;69.76
48800;BME280;34611;47.964;7.982;2022-08-02T07:54:51;97021.94;;;18.39;69.69
48800;BME280;34611;47.964;7.982;2022-08-02T08:01:51;97028.84;;;18.40;69.63
48800;BME280;34611;47.964;7.982;2022-08-02T08:08:52;97025.22;;;18.41;69.56
48800;BME280;34611;47.964;7.982;2022-08-02T08:15:52;97032.13;;;18.42;69.36
48800;BME280;34611;47.964;7.982;2022-08-02T08:22:52;97031.78;;;18.45;69.56
48800;BME280;34611;47.964;7.982;2022-08-02T08:29:52;97019.44;;;18.46;68.99
48800;BME280;34611;47.964;7.982;2022-08-02T08:36:53;97008.91;;;18.46;69.01
48800;BME280;34611;47.964;7.982;2022-08-02T08:43:53;97003.63;;;18.46;68.88
48800;BME280;34611;47.964;7.982;2022-08-02T08:50:59;96999.22;;;18.46;68.92
48800;BME280;34611;47.964;7.982;2022-08-02T08:58:00;97012.38;;;18.46;68.80
48800;BME280;34611;47.964;7.982;2022-08-02T09:05:01;97004.28;;;18.48;68.90
48800;BME280;34611;47.964;7.982;2022-08-02T09:12:14;96996.38;;;18.48;68.69
48800;BME280;34611;47.964;7.982;2022-08-02T09:19:15;96991.97;;;18.48;68.62
48800;BME280;34611;47.964;7.982;2022-08-02T09:26:21;96987.50;;;18.49;68.57
48800;BME280;34611;47.964;7.982;2022-08-02T09:33:25;96990.13;;;18.49;68.54
48800;BME280;34611;47.964;7.982;2022-08-02T09:40:35;96990.94;;;18.49;68.65
48800;BME280;34611;47.964;7.982;2022-08-02T09:47:36;96976.81;;;18.50;68.44
48800;BME280;34611;47.964;7.982;2022-08-02T09:54:36;96977.63;;;18.51;68.48
48800;BME280;34611;47.964;7.982;2022-08-02T10:01:38;96967.91;;;18.51;68.37
48800;BME280;34611;47.964;7.982;2022-08-02T10:08:39;96979.25;;;18.52;68.35
48800;BME280;34611;47.964;7.982;2022-08-02T10:15:39;96971.34;;;18.52;68.30
48800;BME280;34611;47.964;7.982;2022-08-02T10:22:40;96972.19;;;18.52;68.25
48800;BME280;34611;47.964;7.982;2022-08-02T10:29:41;96967.72;;;18.53;68.10
48800;BME280;34611;47.964;7.982;2022-08-02T10:36:42;96959.03;;;18.52;68.15
48800;BME280;34611;47.964;7.982;2022-08-02T10:43:44;96958.00;;;18.53;68.26
48800;BME280;34611;47.964;7.982;2022-08-02T10:58:14;96955.22;;;18.55;68.15
48800;BME280;34611;47.964;7.982;2022-08-02T11:05:10;96952.59;;;18.55;68.16
48800;BME280;34611;47.964;7.982;2022-08-02T11:12:12;96953.38;;;18.55;68.16
48800;BME280;34611;47.964;7.982;2022-08-02T11:19:13;96952.59;;;18.55;68.24
48800;BME280;34611;47.964;7.982;2022-08-02T11:33:32;96948.94;;;18.56;68.03
48800;BME280;34611;47.964;7.982;2022-08-02T11:40:36;96937.59;;;18.55;68.13
48800;BME280;34611;47.964;7.982;2022-08-02T11:47:52;96927.88;;;18.56;68.04
48800;BME280;34611;47.964;7.982;2022-08-02T11:54:53;96934.78;;;18.57;68.03
48800;BME280;34611;47.964;7.982;2022-08-02T12:01:55;96926.09;;;18.56;67.95
48800;BME280;34611;47.964;7.982;2022-08-02T12:09:04;96930.34;;;18.57;67.98
48800;BME280;34611;47.964;7.982;2022-08-02T12:16:08;96932.00;;;18.58;67.99
48800;BME280;34611;47.964;7.982;2022-08-02T12:23:29;96925.06;;;18.57;67.91
48800;BME280;34611;47.964;7.982;2022-08-02T12:30:29;96920.63;;;18.58;68.08
48800;BME280;34611;47.964;7.982;2022-08-02T12:37:29;96914.38;;;18.59;67.99
48800;BME280;34611;47.964;7.982;2022-08-02T12:44:30;96905.47;;;18.60;67.99
48800;BME280;34611;47.964;7.982;2022-08-02T12:51:35;96900.03;;;18.61;68.11
48800;BME280;34611;47.964;7.982;2022-08-02T12:58:47;96889.16;;;18.65;68.12
48800;BME280;34611;47.964;7.982;2022-08-02T13:05:47;96899.84;;;18.63;68.16
48800;BME280;34611;47.964;7.982;2022-08-02T13:12:48;96886.69;;;18.63;67.98
48800;BME280;34611;47.964;7.982;2022-08-02T13:19:48;96885.03;;;18.62;67.77
48800;BME280;34611;47.964;7.982;2022-08-02T13:26:49;96880.63;;;18.63;67.90
48800;BME280;34611;47.964;7.982;2022-08-02T13:33:49;96878.78;;;18.63;67.83
48800;BME280;34611;47.964;7.982;2022-08-02T13:40:49;96881.25;;;18.65;67.88
48800;BME280;34611;47.964;7.982;2022-08-02T13:48:08;96876.97;;;18.64;67.91
48800;BME280;34611;47.964;7.982;2022-08-02T13:55:08;96872.50;;;18.64;67.68
48800;BME280;34611;47.964;7.982;2022-08-02T14:02:08;96865.47;;;18.65;67.83
48800;BME280;34611;47.964;7.982;2022-08-02T14:09:08;96859.34;;;18.64;67.75
48800;BME280;34611;47.964;7.982;2022-08-02T14:16:09;96861.97;;;18.64;67.76
48800;BME280;34611;47.964;7.982;2022-08-02T14:23:09;96857.34;;;18.66;67.74
48800;BME280;34611;47.964;7.982;2022-08-02T14:30:09;96856.53;;;18.66;67.68
48800;BME280;34611;47.964;7.982;2022-08-02T14:37:10;96853.91;;;18.66;67.75
48800;BME280;34611;47.964;7.982;2022-08-02T14:44:10;96855.56;;;18.67;67.73
48800;BME280;34611;47.964;7.982;2022-08-02T14:51:10;96843.84;;;18.69;68.24
48800;BME280;34611;47.964;7.982;2022-08-02T14:58:12;96836.13;;;18.68;67.76
48800;BME280;34611;47.964;7.982;2022-08-02T15:05:13;96841.38;;;18.68;67.80
48800;BME280;34611;47.964;7.982;2022-08-02T15:12:14;96841.84;;;18.71;68.24
48800;BME280;34611;47.964;7.982;2022-08-02T15:19:16;96841.22;;;18.69;67.78
48800;BME280;34611;47.964;7.982;2022-08-02T15:26:16;96835.13;;;18.69;67.89
48800;BME280;34611;47.964;7.982;2022-08-02T15:33:16;96833.97;;;18.71;68.26
48800;BME280;34611;47.964;7.982;2022-08-02T15:40:17;96833.13;;;18.71;67.87
48800;BME280;34611;47.964;7.982;2022-08-02T15:47:17;96830.94;;;18.74;68.04
48800;BME280;34611;47.964;7.982;2022-08-02T15:54:17;96818.16;;;18.71;67.95
48800;BME280;34611;47.964;7.982;2022-08-02T16:01:18;96814.69;;;18.71;67.75
48800;BME280;34611;47.964;7.982;2022-08-02T16:08:18;96816.34;;;18.72;67.78
48800;BME280;34611;47.964;7.982;2022-08-02T16:15:18;96811.06;;;18.72;67.66
48800;BME280;34611;47.964;7.982;2022-08-02T16:22:19;96808.44;;;18.72;67.82
48800;BME280;34611;47.964;7.982;2022-08-02T16:29:19;96803.16;;;18.72;67.74
48800;BME280;34611;47.964;7.982;2022-08-02T16:36:20;96805.81;;;18.72;67.67
48800;BME280;34611;47.964;7.982;2022-08-02T16:43:20;96798.72;;;18.72;67.67
48800;BME280;34611;47.964;7.982;2022-08-02T16:50:20;96805.81;;;18.72;67.67
48800;BME280;34611;47.964;7.982;2022-08-02T16:57:21;96795.25;;;18.72;67.81
48800;BME280;34611;47.964;7.982;2022-08-02T17:04:21;96796.72;;;18.74;67.97
48800;BME280;34611;47.964;7.982;2022-08-02T17:11:21;96796.72;;;18.74;67.80
48800;BME280;34611;47.964;7.982;2022-08-02T17:18:22;96794.88;;;18.75;67.79
48800;BME280;34611;47.964;7.982;2022-08-02T17:25:22;96801.16;;;18.74;67.92
48800;BME280;34611;47.964;7.982;2022-08-02T17:32:23;96798.53;;;18.74;67.88
48800;BME280;34611;47.964;7.982;2022-08-02T17:39:23;96809.06;;;18.74;67.89
48800;BME280;34611;47.964;7.982;2022-08-02T17:46:23;96809.06;;;18.74;67.81
48800;BME280;34611;47.964;7.982;2022-08-02T17:53:23;96801.16;;;18.74;67.82
48800;BME280;34611;47.964;7.982;2022-08-02T18:00:24;96813.31;;;18.75;67.82
48800;BME280;34611;47.964;7.982;2022-08-02T18:07:29;96806.44;;;18.74;67.75
48800;BME280;34611;47.964;7.982;2022-08-02T18:14:30;96808.25;;;18.73;67.87
48800;BME280;34611;47.964;7.982;2022-08-02T18:21:30;96811.53;;;18.75;67.65
48800;BME280;34611;47.964;7.982;2022-08-02T18:28:30;96803.81;;;18.74;67.90
48800;BME280;34611;47.964;7.982;2022-08-02T18:35:31;96808.91;;;18.75;67.94
48800;BME280;34611;47.964;7.982;2022-08-02T18:42:31;96820.25;;;18.76;68.07
48800;BME280;34611;47.964;7.982;2022-08-02T18:49:31;96821.06;;;18.76;67.96
48800;BME280;34611;47.964;7.982;2022-08-02T18:56:31;96825.50;;;18.76;67.75
48800;BME280;34611;47.964;7.982;2022-08-02T19:03:31;96816.78;;;18.75;67.91
48800;BME280;34611;47.964;7.982;2022-08-02T19:10:32;96816.78;;;18.75;67.80
48800;BME280;34611;47.964;7.982;2022-08-02T19:17:35;96819.44;;;18.75;67.66
48800;BME280;34611;47.964;7.982;2022-08-02T19:24:35;96835.22;;;18.75;67.77
48800;BME280;34611;47.964;7.982;2022-08-02T19:31:38;96843.94;;;18.76;67.81
48800;BME280;34611;47.964;7.982;2022-08-02T19:38:38;96839.47;;;18.76;67.79
48800;BME280;34611;47.964;7.982;2022-08-02T19:45:39;96836.03;;;18.76;67.72
48800;BME280;34611;47.964;7.982;2022-08-02T19:52:39;96843.13;;;18.75;67.73
48800;BME280;34611;47.964;7.982;2022-08-02T19:59:40;96851.50;;;18.79;68.06
48800;BME280;34611;47.964;7.982;2022-08-02T20:06:41;96851.50;;;18.79;67.05
48800;BME280;34611;47.964;7.982;2022-08-02T20:13:42;96854.81;;;18.73;67.38
48800;BME280;34611;47.964;7.982;2022-08-02T20:20:42;96861.91;;;18.72;67.28
48800;BME280;34611;47.964;7.982;2022-08-02T20:27:44;96858.47;;;18.72;66.80
48800;BME280;34611;47.964;7.982;2022-08-02T20:34:45;96846.47;;;18.69;66.60
48800;BME280;34611;47.964;7.982;2022-08-02T20:41:45;96845.66;;;18.69;66.45
48800;BME280;34611;47.964;7.982;2022-08-02T20:48:46;96849.28;;;18.68;65.95
48800;BME280;34611;47.964;7.982;2022-08-02T20:55:47;96850.31;;;18.67;66.03
48800;BME280;34611;47.964;7.982;2022-08-02T21:02:47;96857.56;;;18.65;65.86
48800;BME280;34611;47.964;7.982;2022-08-02T21:09:47;96849.28;;;18.68;65.12
48800;BME280;34611;47.964;7.982;2022-08-02T21:16:48;96844.03;;;18.68;65.02
48800;BME280;34611;47.964;7.982;2022-08-02T21:23:48;96834.50;;;18.67;63.90
48800;BME280;34611;47.964;7.982;2022-08-02T21:30:48;96827.97;;;18.63;64.77
48800;BME280;34611;47.964;7.982;2022-08-02T21:37:49;96835.47;;;18.66;63.34
48800;BME280;34611;47.964;7.982;2022-08-02T21:44:49;96834.03;;;18.63;64.86
48800;BME280;34611;47.964;7.982;2022-08-02T21:51:50;96828.78;;;18.63;62.44
48800;BME280;34611;47.964;7.982;2022-08-02T21:58:50;96829.56;;;18.64;64.08
48800;BME280;34611;47.964;7.982;2022-08-02T22:05:50;96828.31;;;18.59;63.93
48800;BME280;34611;47.964;7.982;2022-08-02T22:12:50;96834.03;;;18.63;62.10
48800;BME280;34611;47.964;7.982;2022-08-02T22:19:51;96834.50;;;18.67;61.65
48800;BME280;34611;47.964;7.982;2022-08-02T22:26:51;96829.56;;;18.64;62.30
48800;BME280;34611;47.964;7.982;2022-08-02T22:33:51;96835.22;;;18.60;62.98
48800;BME280;34611;47.964;7.982;2022-08-02T22:41:07;96848.38;;;18.60;62.12
48800;BME280;34611;47.964;7.982;2022-08-02T22:48:07;96839.56;;;18.68;60.75
48800;BME280;34611;47.964;7.982;2022-08-02T22:55:07;96839.78;;;18.67;60.57
48800;BME280;34611;47.964;7.982;2022-08-02T23:02:08;96839.41;;;18.70;60.21
48800;BME280;34611;47.964;7.982;2022-08-02T23:09:08;96840.41;;;18.69;60.07
48800;BME280;34611;47.964;7.982;2022-08-02T23:16:09;96835.47;;;18.66;60.05
48800;BME280;34611;47.964;7.982;2022-08-02T23:23:27;96842.41;;;18.67;59.88
48800;BME280;34611;47.964;7.982;2022-08-02T23:30:28;96837.47;;;18.64;59.77
48800;BME280;34611;47.964;7.982;2022-08-02T23:37:28;96840.13;;;18.64;60.12
48800;BME280;34611;47.964;7.982;2022-08-02T23:44:28;96840.13;;;18.64;60.15
48800;BME280;34611;47.964;7.982;2022-08-02T23:51:28;96835.22;;;18.60;59.99
48800;BME280;34611;47.964;7.982;2022-08-02T23:58:29;96834.84;;;18.64;59.65
